sensor_id;sensor_type;location;lat;lon;timestamp;pressure;altitude;pressure_sealevel;temperature;humidity
53889;BME280;41337;51.400;-2.342;2022-07-10T00:01:56;102547.13;;;19.78;52.61
53889;BME280;41337;51.400;-2.342;2022-07-10T00:06:57;102554.22;;;19.67;54.81
53889;BME280;41337;51.400;-2.342;2022-07-10T00:11:58;102544.56;;;19.61;56.29
53889;BME280;41337;51.400;-2.342;2022-07-10T00:16:59;102550.81;;;19.53;59.17
53889;BME280;41337;51.400;-2.342;2022-07-10T00:22:04;102550.00;;;19.43;58.92
53889;BME280;41337;51.400;-2.342;2022-07-10T00:27:05;102542.00;;;19.51;58.21
53889;BME280;41337;51.400;-2.342;2022-07-10T00:32:06;102539.63;;;19.12;61.83
53889;BME280;41337;51.400;-2.342;2022-07-10T00:37:07;102530.88;;;19.01;63.78
53889;BME280;41337;51.400;-2.342;2022-07-10T00:42:09;102537.97;;;18.89;65.91
53889;BME280;41337;51.400;-2.342;2022-07-10T00:47:14;102536.22;;;18.82;67.50
53889;BME280;41337;51.400;-2.342;2022-07-10T00:52:18;102527.53;;;18.59;70.78
53889;BME280;41337;51.400;-2.342;2022-07-10T00:57:24;102530.22;;;18.35;72.01
53889;BME280;41337;51.400;-2.342;2022-07-10T01:02:25;102530.28;;;18.19;74.75
53889;BME280;41337;51.400;-2.342;2022-07-10T01:07:25;102539.09;;;18.04;75.77
53889;BME280;41337;51.400;-2.342;2022-07-10T01:12:27;102533.81;;;18.07;73.93
53889;BME280;41337;51.400;-2.342;2022-07-10T01:17:30;102529.44;;;17.64;80.84
53889;BME280;41337;51.400;-2.342;2022-07-10T01:22:36;102522.38;;;17.54;79.66
53889;BME280;41337;51.400;-2.342;2022-07-10T01:27:38;102513.59;;;17.38;81.27
53889;BME280;41337;51.400;-2.342;2022-07-10T01:32:48;102503.03;;;17.29;81.14
53889;BME280;41337;51.400;-2.342;2022-07-10T01:37:52;102513.53;;;17.02;82.52
53889;BME280;41337;51.400;-2.342;2022-07-10T01:42:53;102505.59;;;16.87;83.56
53889;BME280;41337;51.400;-2.342;2022-07-10T01:47:54;102512.50;;;16.68;85.57
53889;BME280;41337;51.400;-2.342;2022-07-10T01:52:55;102513.38;;;16.59;88.23
53889;BME280;41337;51.400;-2.342;2022-07-10T01:57:56;102504.56;;;16.60;86.53
53889;BME280;41337;51.400;-2.342;2022-07-10T02:02:57;102503.53;;;16.27;91.42
53889;BME280;41337;51.400;-2.342;2022-07-10T02:08:20;102498.81;;;15.77;97.56
53889;BME280;41337;51.400;-2.342;2022-07-10T02:13:21;102510.06;;;15.62;98.19
53889;BME280;41337;51.400;-2.342;2022-07-10T02:18:25;102516.97;;;15.52;99.85
53889;BME280;41337;51.400;-2.342;2022-07-10T02:23:32;102515.13;;;15.40;100.00
53889;BME280;41337;51.400;-2.342;2022-07-10T02:28:33;102513.34;;;15.38;100.00
53889;BME280;41337;51.400;-2.342;2022-07-10T02:33:34;102509.19;;;15.62;100.00
53889;BME280;41337;51.400;-2.342;2022-07-10T02:38:34;102506.25;;;15.29;100.00
53889;BME280;41337;51.400;-2.342;2022-07-10T02:43:35;102512.72;;;14.81;100.00
53889;BME280;41337;51.400;-2.342;2022-07-10T02:48:36;102502.25;;;14.82;100.00
53889;BME280;41337;51.400;-2.342;2022-07-10T02:53:41;102493.16;;;14.56;100.00
53889;BME280;41337;51.400;-2.342;2022-07-10T02:58:41;102487.28;;;14.72;100.00
53889;BME280;41337;51.400;-2.342;2022-07-10T03:03:42;102496.53;;;14.44;100.00
53889;BME280;41337;51.400;-2.342;2022-07-10T03:08:43;102492.09;;;14.41;100.00
53889;BME280;41337;51.400;-2.342;2022-07-10T03:13:44;102486.91;;;14.44;100.00
53889;BME280;41337;51.400;-2.342;2022-07-10T03:18:45;102493.78;;;14.36;100.00
53889;BME280;41337;51.400;-2.342;2022-07-10T03:23:45;102485.94;;;14.38;100.00
53889;BME280;41337;51.400;-2.342;2022-07-10T03:28:46;102481.25;;;14.15;100.00
53889;BME280;41337;51.400;-2.342;2022-07-10T03:33:47;102462.91;;;14.15;100.00
53889;BME280;41337;51.400;-2.342;2022-07-10T03:38:52;102468.25;;;14.21;100.00
53889;BME280;41337;51.400;-2.342;2022-07-10T03:43:53;102471.72;;;14.20;100.00
53889;BME280;41337;51.400;-2.342;2022-07-10T03:48:53;102454.03;;;14.05;100.00
53889;BME280;41337;51.400;-2.342;2022-07-10T03:53:54;102460.66;;;13.79;100.00
53889;BME280;41337;51.400;-2.342;2022-07-10T03:58:55;102458.94;;;13.82;100.00
53889;BME280;41337;51.400;-2.342;2022-07-10T04:03:56;102459.66;;;13.70;100.00
53889;BME280;41337;51.400;-2.342;2022-07-10T04:08:57;102457.13;;;13.76;100.00
53889;BME280;41337;51.400;-2.342;2022-07-10T04:13:57;102452.41;;;13.54;100.00
53889;BME280;41337;51.400;-2.342;2022-07-10T04:18:58;102436.28;;;13.31;100.00
53889;BME280;41337;51.400;-2.342;2022-07-10T04:23:59;102442.50;;;13.36;100.00
53889;BME280;41337;51.400;-2.342;2022-07-10T04:29:06;102451.22;;;13.36;100.00
53889;BME280;41337;51.400;-2.342;2022-07-10T04:34:07;102444.63;;;13.10;100.00
53889;BME280;41337;51.400;-2.342;2022-07-10T04:39:08;102446.13;;;12.95;100.00
53889;BME280;41337;51.400;-2.342;2022-07-10T04:44:09;102449.75;;;13.03;100.00
53889;BME280;41337;51.400;-2.342;2022-07-10T04:49:10;102433.16;;;13.01;100.00
53889;BME280;41337;51.400;-2.342;2022-07-10T04:54:17;102432.16;;;12.95;100.00
53889;BME280;41337;51.400;-2.342;2022-07-10T04:59:17;102435.88;;;13.06;100.00
53889;BME280;41337;51.400;-2.342;2022-07-10T05:04:18;102426.63;;;13.28;100.00
53889;BME280;41337;51.400;-2.342;2022-07-10T05:09:19;102415.84;;;13.10;100.00
53889;BME280;41337;51.400;-2.342;2022-07-10T05:14:26;102416.81;;;13.15;100.00
53889;BME280;41337;51.400;-2.342;2022-07-10T05:19:27;102406.41;;;13.18;100.00
53889;BME280;41337;51.400;-2.342;2022-07-10T05:24:28;102409.06;;;13.21;100.00
53889;BME280;41337;51.400;-2.342;2022-07-10T05:29:29;102414.59;;;13.36;100.00
53889;BME280;41337;51.400;-2.342;2022-07-10T05:34:30;102424.38;;;13.50;100.00
53889;BME280;41337;51.400;-2.342;2022-07-10T05:39:39;102429.84;;;13.62;100.00
53889;BME280;41337;51.400;-2.342;2022-07-10T05:44:45;102425.66;;;13.75;100.00
53889;BME280;41337;51.400;-2.342;2022-07-10T05:49:45;102430.31;;;13.94;100.00
53889;BME280;41337;51.400;-2.342;2022-07-10T05:54:46;102421.75;;;14.06;100.00
53889;BME280;41337;51.400;-2.342;2022-07-10T05:59:47;102422.63;;;14.08;100.00
53889;BME280;41337;51.400;-2.342;2022-07-10T06:04:48;102425.47;;;14.22;100.00
53889;BME280;41337;51.400;-2.342;2022-07-10T06:09:49;102423.84;;;14.34;100.00
53889;BME280;41337;51.400;-2.342;2022-07-10T06:14:50;102424.94;;;14.54;100.00
53889;BME280;41337;51.400;-2.342;2022-07-10T06:19:51;102420.88;;;14.78;100.00
53889;BME280;41337;51.400;-2.342;2022-07-10T06:24:52;102418.38;;;14.92;100.00
53889;BME280;41337;51.400;-2.342;2022-07-10T06:29:57;102414.25;;;15.15;100.00
53889;BME280;41337;51.400;-2.342;2022-07-10T06:34:58;102421.41;;;15.33;100.00
53889;BME280;41337;51.400;-2.342;2022-07-10T06:39:59;102428.47;;;15.42;100.00
53889;BME280;41337;51.400;-2.342;2022-07-10T06:44:59;102414.56;;;15.55;100.00
53889;BME280;41337;51.400;-2.342;2022-07-10T06:50:02;102416.34;;;15.61;100.00
53889;BME280;41337;51.400;-2.342;2022-07-10T06:55:04;102419.06;;;15.72;100.00
53889;BME280;41337;51.400;-2.342;2022-07-10T07:00:08;102414.84;;;15.99;100.00
53889;BME280;41337;51.400;-2.342;2022-07-10T07:05:10;102416.59;;;15.96;100.00
53889;BME280;41337;51.400;-2.342;2022-07-10T07:10:11;102404.38;;;16.03;100.00
53889;BME280;41337;51.400;-2.342;2022-07-10T07:15:13;102406.28;;;16.44;100.00
53889;BME280;41337;51.400;-2.342;2022-07-10T07:20:19;102406.31;;;16.52;100.00
53889;BME280;41337;51.400;-2.342;2022-07-10T07:25:41;102415.03;;;16.37;100.00
53889;BME280;41337;51.400;-2.342;2022-07-10T07:30:59;102409.81;;;16.54;100.00
53889;BME280;41337;51.400;-2.342;2022-07-10T07:36:03;102411.59;;;16.61;100.00
53889;BME280;41337;51.400;-2.342;2022-07-10T07:41:04;102411.63;;;16.70;100.00
53889;BME280;41337;51.400;-2.342;2022-07-10T07:46:05;102404.69;;;17.00;100.00
53889;BME280;41337;51.400;-2.342;2022-07-10T07:51:05;102400.31;;;17.22;100.00
53889;BME280;41337;51.400;-2.342;2022-07-10T07:56:06;102397.66;;;17.24;100.00
53889;BME280;41337;51.400;-2.342;2022-07-10T08:01:07;102398.56;;;17.41;100.00
53889;BME280;41337;51.400;-2.342;2022-07-10T08:06:08;102402.03;;;17.60;100.00
53889;BME280;41337;51.400;-2.342;2022-07-10T08:11:09;102393.25;;;17.61;100.00
53889;BME280;41337;51.400;-2.342;2022-07-10T08:16:16;102383.56;;;17.77;100.00
53889;BME280;41337;51.400;-2.342;2022-07-10T08:21:17;102399.31;;;18.11;100.00
53889;BME280;41337;51.400;-2.342;2022-07-10T08:26:17;102397.44;;;18.29;100.00
53889;BME280;41337;51.400;-2.342;2022-07-10T08:31:18;102404.53;;;18.21;100.00
53889;BME280;41337;51.400;-2.342;2022-07-10T08:36:25;102386.97;;;18.13;100.00
53889;BME280;41337;51.400;-2.342;2022-07-10T08:41:27;102376.34;;;18.29;100.00
53889;BME280;41337;51.400;-2.342;2022-07-10T08:46:36;102379.81;;;18.37;100.00
53889;BME280;41337;51.400;-2.342;2022-07-10T08:51:56;102381.47;;;18.57;100.00
53889;BME280;41337;51.400;-2.342;2022-07-10T08:57:03;102373.44;;;18.77;100.00
53889;BME280;41337;51.400;-2.342;2022-07-10T09:02:04;102376.03;;;18.81;100.00
53889;BME280;41337;51.400;-2.342;2022-07-10T09:07:05;102370.63;;;19.03;100.00
53889;BME280;41337;51.400;-2.342;2022-07-10T09:12:06;102372.16;;;19.25;100.00
53889;BME280;41337;51.400;-2.342;2022-07-10T09:17:07;102370.31;;;19.35;100.00
53889;BME280;41337;51.400;-2.342;2022-07-10T09:22:14;102370.16;;;19.55;100.00
53889;BME280;41337;51.400;-2.342;2022-07-10T09:27:22;102368.34;;;19.57;100.00
53889;BME280;41337;51.400;-2.342;2022-07-10T09:32:23;102343.50;;;19.72;100.00
53889;BME280;41337;51.400;-2.342;2022-07-10T09:37:26;102346.81;;;19.94;100.00
53889;BME280;41337;51.400;-2.342;2022-07-10T09:42:40;102343.06;;;20.11;100.00
53889;BME280;41337;51.400;-2.342;2022-07-10T09:48:00;102343.69;;;20.28;100.00
53889;BME280;41337;51.400;-2.342;2022-07-10T09:53:08;102337.22;;;20.49;100.00
53889;BME280;41337;51.400;-2.342;2022-07-10T09:58:17;102337.06;;;20.60;94.98
53889;BME280;41337;51.400;-2.342;2022-07-10T10:03:20;102339.53;;;20.74;97.88
53889;BME280;41337;51.400;-2.342;2022-07-10T10:08:23;102327.00;;;20.84;90.60
53889;BME280;41337;51.400;-2.342;2022-07-10T10:13:28;102324.81;;;21.09;88.09
53889;BME280;41337;51.400;-2.342;2022-07-10T10:18:30;102335.03;;;21.31;84.04
53889;BME280;41337;51.400;-2.342;2022-07-10T10:23:38;102326.44;;;21.66;86.58
53889;BME280;41337;51.400;-2.342;2022-07-10T10:28:45;102321.19;;;21.63;86.19
53889;BME280;41337;51.400;-2.342;2022-07-10T10:33:47;102315.38;;;21.88;74.42
53889;BME280;41337;51.400;-2.342;2022-07-10T10:39:22;102315.16;;;21.97;70.85
53889;BME280;41337;51.400;-2.342;2022-07-10T10:44:27;102305.19;;;22.08;72.21
53889;BME280;41337;51.400;-2.342;2022-07-10T10:50:01;102299.69;;;22.17;73.66
53889;BME280;41337;51.400;-2.342;2022-07-10T10:55:03;102296.56;;;22.39;65.86
53889;BME280;41337;51.400;-2.342;2022-07-10T11:00:08;102300.19;;;22.72;60.23
53889;BME280;41337;51.400;-2.342;2022-07-10T11:10:41;102293.88;;;23.11;61.47
53889;BME280;41337;51.400;-2.342;2022-07-10T11:15:49;102289.53;;;23.41;64.70
53889;BME280;41337;51.400;-2.342;2022-07-10T11:20:54;102287.66;;;23.75;53.57
53889;BME280;41337;51.400;-2.342;2022-07-10T11:31:35;102281.03;;;23.90;55.25
53889;BME280;41337;51.400;-2.342;2022-07-10T11:36:41;102290.03;;;24.15;51.39
53889;BME280;41337;51.400;-2.342;2022-07-10T11:41:46;102274.28;;;24.36;48.32
53889;BME280;41337;51.400;-2.342;2022-07-10T11:46:51;102269.72;;;24.40;48.74
53889;BME280;41337;51.400;-2.342;2022-07-10T11:51:54;102260.91;;;24.91;44.81
53889;BME280;41337;51.400;-2.342;2022-07-10T11:57:05;102257.66;;;25.08;41.19
53889;BME280;41337;51.400;-2.342;2022-07-10T12:02:09;102241.88;;;25.74;44.70
53889;BME280;41337;51.400;-2.342;2022-07-10T12:07:10;102247.25;;;26.61;41.89
53889;BME280;41337;51.400;-2.342;2022-07-10T12:12:13;102243.41;;;27.09;40.41
53889;BME280;41337;51.400;-2.342;2022-07-10T12:17:13;102241.38;;;28.11;36.96
53889;BME280;41337;51.400;-2.342;2022-07-10T12:22:17;102239.09;;;28.04;35.01
53889;BME280;41337;51.400;-2.342;2022-07-10T12:27:39;102227.09;;;28.47;34.38
53889;BME280;41337;51.400;-2.342;2022-07-10T12:32:40;102224.44;;;29.16;33.79
53889;BME280;41337;51.400;-2.342;2022-07-10T12:37:48;102213.91;;;29.78;28.90
53889;BME280;41337;51.400;-2.342;2022-07-10T12:42:49;102210.06;;;29.98;28.05
53889;BME280;41337;51.400;-2.342;2022-07-10T12:47:50;102199.69;;;30.38;24.58
53889;BME280;41337;51.400;-2.342;2022-07-10T12:53:07;102200.19;;;31.04;27.64
53889;BME280;41337;51.400;-2.342;2022-07-10T12:58:08;102188.84;;;31.27;27.92
53889;BME280;41337;51.400;-2.342;2022-07-10T13:03:17;102186.88;;;30.72;28.15
53889;BME280;41337;51.400;-2.342;2022-07-10T13:08:24;102192.09;;;30.75;29.28
53889;BME280;41337;51.400;-2.342;2022-07-10T13:13:26;102189.59;;;31.01;30.01
53889;BME280;41337;51.400;-2.342;2022-07-10T13:18:27;102182.06;;;31.49;28.26
53889;BME280;41337;51.400;-2.342;2022-07-10T13:23:37;102184.75;;;31.63;28.78
53889;BME280;41337;51.400;-2.342;2022-07-10T13:28:39;102188.59;;;32.14;26.60
53889;BME280;41337;51.400;-2.342;2022-07-10T13:33:43;102175.81;;;32.30;27.53
53889;BME280;41337;51.400;-2.342;2022-07-10T13:38:44;102183.25;;;32.27;26.60
53889;BME280;41337;51.400;-2.342;2022-07-10T13:43:47;102178.41;;;32.19;27.24
53889;BME280;41337;51.400;-2.342;2022-07-10T13:48:48;102178.72;;;32.40;26.39
53889;BME280;41337;51.400;-2.342;2022-07-10T13:53:49;102184.09;;;32.14;26.32
53889;BME280;41337;51.400;-2.342;2022-07-10T13:58:50;102181.22;;;32.56;25.87
53889;BME280;41337;51.400;-2.342;2022-07-10T14:03:57;102178.31;;;32.59;26.46
53889;BME280;41337;51.400;-2.342;2022-07-10T14:08:58;102167.13;;;32.91;25.02
53889;BME280;41337;51.400;-2.342;2022-07-10T14:14:00;102158.25;;;32.89;26.87
53889;BME280;41337;51.400;-2.342;2022-07-10T14:19:01;102153.13;;;33.10;24.83
53889;BME280;41337;51.400;-2.342;2022-07-10T14:24:11;102148.06;;;33.18;25.05
53889;BME280;41337;51.400;-2.342;2022-07-10T14:29:12;102133.41;;;33.46;24.63
53889;BME280;41337;51.400;-2.342;2022-07-10T14:34:16;102136.25;;;33.69;25.02
53889;BME280;41337;51.400;-2.342;2022-07-10T14:39:17;102133.47;;;33.58;26.34
53889;BME280;41337;51.400;-2.342;2022-07-10T14:44:18;102125.13;;;34.20;26.47
53889;BME280;41337;51.400;-2.342;2022-07-10T14:49:19;102131.69;;;34.41;25.10
53889;BME280;41337;51.400;-2.342;2022-07-10T14:54:20;102114.63;;;34.63;25.93
53889;BME280;41337;51.400;-2.342;2022-07-10T14:59:21;102107.38;;;34.63;25.16
53889;BME280;41337;51.400;-2.342;2022-07-10T15:04:22;102105.50;;;34.41;25.86
53889;BME280;41337;51.400;-2.342;2022-07-10T15:09:27;102100.19;;;35.19;24.77
53889;BME280;41337;51.400;-2.342;2022-07-10T15:14:28;102085.38;;;34.79;25.60
53889;BME280;41337;51.400;-2.342;2022-07-10T15:19:30;102088.53;;;34.39;25.25
53889;BME280;41337;51.400;-2.342;2022-07-10T15:24:31;102085.63;;;34.76;24.48
53889;BME280;41337;51.400;-2.342;2022-07-10T15:29:32;102074.28;;;34.71;25.18
53889;BME280;41337;51.400;-2.342;2022-07-10T15:34:39;102079.22;;;34.66;23.93
53889;BME280;41337;51.400;-2.342;2022-07-10T15:39:40;102065.16;;;34.61;24.75
53889;BME280;41337;51.400;-2.342;2022-07-10T15:44:47;102051.50;;;34.96;23.84
53889;BME280;41337;51.400;-2.342;2022-07-10T15:49:48;102050.84;;;35.15;23.44
53889;BME280;41337;51.400;-2.342;2022-07-10T15:54:50;102046.75;;;35.32;22.81
53889;BME280;41337;51.400;-2.342;2022-07-10T15:59:51;102047.53;;;35.44;23.06
53889;BME280;41337;51.400;-2.342;2022-07-10T16:04:51;102046.38;;;35.90;23.18
53889;BME280;41337;51.400;-2.342;2022-07-10T16:09:52;102048.72;;;36.05;23.42
53889;BME280;41337;51.400;-2.342;2022-07-10T16:14:53;102053.59;;;36.11;21.90
53889;BME280;41337;51.400;-2.342;2022-07-10T16:19:55;102037.28;;;36.01;22.06
53889;BME280;41337;51.400;-2.342;2022-07-10T16:24:56;102046.47;;;36.10;21.96
53889;BME280;41337;51.400;-2.342;2022-07-10T16:30:18;102034.84;;;35.77;22.44
53889;BME280;41337;51.400;-2.342;2022-07-10T16:35:19;102037.72;;;36.27;21.34
53889;BME280;41337;51.400;-2.342;2022-07-10T16:40:20;102026.94;;;36.47;21.88
53889;BME280;41337;51.400;-2.342;2022-07-10T16:45:21;102029.22;;;36.42;23.38
53889;BME280;41337;51.400;-2.342;2022-07-10T16:50:22;102029.28;;;36.61;22.00
53889;BME280;41337;51.400;-2.342;2022-07-10T16:55:23;102023.28;;;36.58;22.00
53889;BME280;41337;51.400;-2.342;2022-07-10T17:00:24;102023.81;;;36.51;21.28
53889;BME280;41337;51.400;-2.342;2022-07-10T17:05:26;102020.13;;;36.52;21.65
53889;BME280;41337;51.400;-2.342;2022-07-10T17:10:30;102018.69;;;36.58;21.00
53889;BME280;41337;51.400;-2.342;2022-07-10T17:15:31;102023.06;;;36.09;21.25
53889;BME280;41337;51.400;-2.342;2022-07-10T17:20:32;102003.88;;;36.00;21.28
53889;BME280;41337;51.400;-2.342;2022-07-10T17:25:33;101999.75;;;36.06;21.40
53889;BME280;41337;51.400;-2.342;2022-07-10T17:30:34;102000.81;;;36.46;20.37
53889;BME280;41337;51.400;-2.342;2022-07-10T17:35:36;101996.06;;;36.38;19.95
53889;BME280;41337;51.400;-2.342;2022-07-10T17:40:37;101994.84;;;36.21;20.09
53889;BME280;41337;51.400;-2.342;2022-07-10T17:45:42;101995.31;;;36.26;19.39
53889;BME280;41337;51.400;-2.342;2022-07-10T17:50:43;101985.50;;;35.62;19.61
53889;BME280;41337;51.400;-2.342;2022-07-10T17:55:44;101988.81;;;35.65;20.34
53889;BME280;41337;51.400;-2.342;2022-07-10T18:00:45;101975.72;;;35.17;21.08
53889;BME280;41337;51.400;-2.342;2022-07-10T18:05:47;101978.19;;;35.20;20.91
53889;BME280;41337;51.400;-2.342;2022-07-10T18:10:55;101982.28;;;35.03;19.94
53889;BME280;41337;51.400;-2.342;2022-07-10T18:16:31;101971.69;;;34.79;21.11
53889;BME280;41337;51.400;-2.342;2022-07-10T18:21:32;101981.16;;;34.51;20.30
53889;BME280;41337;51.400;-2.342;2022-07-10T18:26:33;101975.63;;;34.41;20.99
53889;BME280;41337;51.400;-2.342;2022-07-10T18:31:40;101972.31;;;34.49;20.53
53889;BME280;41337;51.400;-2.342;2022-07-10T18:36:41;101964.06;;;34.73;20.47
53889;BME280;41337;51.400;-2.342;2022-07-10T18:41:42;101969.34;;;34.18;20.35
53889;BME280;41337;51.400;-2.342;2022-07-10T18:46:43;101973.72;;;33.74;21.09
53889;BME280;41337;51.400;-2.342;2022-07-10T18:51:44;101968.53;;;33.24;20.72
53889;BME280;41337;51.400;-2.342;2022-07-10T18:56:45;101964.25;;;32.47;22.31
53889;BME280;41337;51.400;-2.342;2022-07-10T19:01:46;101968.81;;;31.57;23.74
53889;BME280;41337;51.400;-2.342;2022-07-10T19:06:47;101962.44;;;31.18;24.38
53889;BME280;41337;51.400;-2.342;2022-07-10T19:11:48;101963.03;;;31.08;24.76
53889;BME280;41337;51.400;-2.342;2022-07-10T19:16:48;101964.28;;;30.61;25.15
53889;BME280;41337;51.400;-2.342;2022-07-10T19:21:54;101963.06;;;30.24;25.41
53889;BME280;41337;51.400;-2.342;2022-07-10T19:26:54;101968.13;;;29.99;25.95
53889;BME280;41337;51.400;-2.342;2022-07-10T19:31:55;101965.50;;;29.69;26.66
53889;BME280;41337;51.400;-2.342;2022-07-10T19:36:56;101967.78;;;29.61;28.46
53889;BME280;41337;51.400;-2.342;2022-07-10T19:41:57;101975.59;;;29.50;29.36
53889;BME280;41337;51.400;-2.342;2022-07-10T19:46:58;101967.72;;;29.00;31.32
53889;BME280;41337;51.400;-2.342;2022-07-10T19:52:00;101972.38;;;28.65;32.74
53889;BME280;41337;51.400;-2.342;2022-07-10T19:57:05;101978.13;;;28.08;33.95
53889;BME280;41337;51.400;-2.342;2022-07-10T20:02:06;101981.75;;;27.54;35.37
53889;BME280;41337;51.400;-2.342;2022-07-10T20:07:07;101977.69;;;26.91;37.53
53889;BME280;41337;51.400;-2.342;2022-07-10T20:12:08;101980.16;;;26.77;38.61
53889;BME280;41337;51.400;-2.342;2022-07-10T20:17:15;101973.69;;;26.62;39.22
53889;BME280;41337;51.400;-2.342;2022-07-10T20:22:16;101976.88;;;26.32;41.00
53889;BME280;41337;51.400;-2.342;2022-07-10T20:27:17;101984.44;;;26.02;40.95
53889;BME280;41337;51.400;-2.342;2022-07-10T20:32:18;101987.63;;;25.69;41.77
53889;BME280;41337;51.400;-2.342;2022-07-10T20:37:22;101975.34;;;25.65;41.56
53889;BME280;41337;51.400;-2.342;2022-07-10T20:42:43;101979.84;;;24.98;44.34
53889;BME280;41337;51.400;-2.342;2022-07-10T20:47:44;101985.75;;;24.83;43.01
53889;BME280;41337;51.400;-2.342;2022-07-10T20:52:52;101980.88;;;24.47;46.13
53889;BME280;41337;51.400;-2.342;2022-07-10T20:57:52;101995.09;;;24.22;47.22
53889;BME280;41337;51.400;-2.342;2022-07-10T21:02:53;101985.34;;;23.97;48.02
53889;BME280;41337;51.400;-2.342;2022-07-10T21:07:54;101995.63;;;23.81;47.28
53889;BME280;41337;51.400;-2.342;2022-07-10T21:13:01;102006.03;;;23.62;47.83
53889;BME280;41337;51.400;-2.342;2022-07-10T21:18:02;102005.56;;;23.50;47.56
53889;BME280;41337;51.400;-2.342;2022-07-10T21:23:04;102001.44;;;23.41;47.83
53889;BME280;41337;51.400;-2.342;2022-07-10T21:28:08;102009.91;;;23.25;48.29
53889;BME280;41337;51.400;-2.342;2022-07-10T21:33:09;102006.47;;;22.92;48.33
53889;BME280;41337;51.400;-2.342;2022-07-10T21:38:10;101995.06;;;22.59;47.19
53889;BME280;41337;51.400;-2.342;2022-07-10T21:43:11;102004.06;;;22.22;47.48
53889;BME280;41337;51.400;-2.342;2022-07-10T21:48:12;102007.75;;;21.81;48.74
53889;BME280;41337;51.400;-2.342;2022-07-10T21:53:13;102003.34;;;21.44;49.31
53889;BME280;41337;51.400;-2.342;2022-07-10T21:58:13;102007.00;;;21.01;50.42
53889;BME280;41337;51.400;-2.342;2022-07-10T22:03:14;102005.31;;;20.55;55.20
53889;BME280;41337;51.400;-2.342;2022-07-10T22:08:15;102009.25;;;20.34;56.32
53889;BME280;41337;51.400;-2.342;2022-07-10T22:13:16;102003.03;;;20.35;54.42
53889;BME280;41337;51.400;-2.342;2022-07-10T22:18:18;102004.13;;;20.26;56.25
53889;BME280;41337;51.400;-2.342;2022-07-10T22:23:25;101996.94;;;20.31;57.93
53889;BME280;41337;51.400;-2.342;2022-07-10T22:28:25;101991.50;;;20.39;61.14
53889;BME280;41337;51.400;-2.342;2022-07-10T22:33:26;101987.78;;;20.48;59.50
53889;BME280;41337;51.400;-2.342;2022-07-10T22:38:27;102005.53;;;20.44;58.39
53889;BME280;41337;51.400;-2.342;2022-07-10T22:43:28;101986.81;;;20.08;63.19
53889;BME280;41337;51.400;-2.342;2022-07-10T22:48:29;101991.44;;;19.95;63.37
53889;BME280;41337;51.400;-2.342;2022-07-10T22:53:30;101990.97;;;19.72;64.28
53889;BME280;41337;51.400;-2.342;2022-07-10T22:58:31;101997.34;;;19.60;65.15
53889;BME280;41337;51.400;-2.342;2022-07-10T23:03:32;102004.59;;;19.47;67.56
53889;BME280;41337;51.400;-2.342;2022-07-10T23:08:33;102001.06;;;19.45;67.14
53889;BME280;41337;51.400;-2.342;2022-07-10T23:13:37;102003.22;;;19.21;70.57
53889;BME280;41337;51.400;-2.342;2022-07-10T23:18:38;102006.38;;;18.81;76.60
53889;BME280;41337;51.400;-2.342;2022-07-10T23:23:39;102006.44;;;18.78;80.32
53889;BME280;41337;51.400;-2.342;2022-07-10T23:28:40;102004.63;;;18.83;79.12
53889;BME280;41337;51.400;-2.342;2022-07-10T23:33:43;101997.63;;;18.78;80.49
53889;BME280;41337;51.400;-2.342;2022-07-10T23:38:44;101998.44;;;18.81;77.48
53889;BME280;41337;51.400;-2.342;2022-07-10T23:43:45;101998.66;;;18.66;79.95
53889;BME280;41337;51.400;-2.342;2022-07-10T23:48:46;101991.09;;;18.35;85.70
53889;BME280;41337;51.400;-2.342;2022-07-10T23:54:11;102003.50;;;18.28;84.06
53889;BME280;41337;51.400;-2.342;2022-07-10T23:59:12;101996.66;;;18.07;85.89
